Red Mountain, California
Current Conditions -  °F | °C
As of 11:56 PM on Friday 28 Nov 2014 (Local Time) from KNID Reporting Station
Clear Clear  
Wind Chill: 56°   Ceiling: Unl
Heat Index: 56°   Visibility: 10mi
Dew Point:   Wind: 7mph
Humidity: 11%   Direction: 180°S
Pressure: 29.87"   Gusts: NA
Location:  35.36°N, 117.62°W
Report Text: KNID 290756Z AUTO 18006KT 10SM CLR 13/M17 A2987 RMK AO2 SLP109 T01331172 402110006 $
Loading
Personal Weather Stations






























Interactive Weather Map New forecast layout! Learn more

10-Day Weather Forecast

Advertisements
Track Severe Weather on mobile